Impacts TAF Board INFO
FOR SITUATIONAL AWARENESS. NOT TO BE USED FOR FLIGHT PLANNING PURPOSES.
IDs:

KFLL - Ft Lauderdale-Hollyw, FL, US

Issued at 0900 UTC 18 Jan 2018
Updated at 0950 UTC 18 Jan 2018
Potential Impact None Slight Moderate High
Time0853Z 18/10Z 18/11Z 18/12Z 18/13Z 18/14Z 18/15Z 18/16Z 18/17Z 18/18Z 18/19Z 18/20Z 18/21Z 18/22Z>>
Type OBS PRVL PRVL PRVL PRVL PRVL PRVL PRVL PRVL PRVL PRVL PRVL PRVL PRVL
VIS 10 >6 >6 >6 >6 >6 >6 >6 >6 >6 >6 >6 >6 >6
CIG 250 -- -- -- -- -- -- -- -- -- -- -- -- --
Cover BKN SCT SCT SCT SCT SCT SCT SCT SCT SCT SCT SCT SCT SCT
FltCat VFR VFR VFR VFR VFR VFR VFR VFR VFR VFR VFR VFR VFR VFR
WX -- -- -- -- -- -- -- -- -- -- -- -- -- --
WDir 340 340 340 340 340 340 340 350 350 350 350 350 350 350
WSpd 10 11 11 11 11 11 11 13 13 13 13 13 13 13
WGst -- -- -- -- -- -- -- 20 20 20 20 20 20 20

Raw TAF
KFLL 180900Z 1809/1912 34011KT P6SM SCT250
  FM181600 35013G20KT P6SM SCT250
  FM182300 02008KT P6SM SCT250


Raw METAR
KFLL 180853Z 34010KT 10SM BKN250 08/06 A3022 RMK AO2 SLP232 T00830056 56005
KFLL 180753Z 32008G16KT 10SM BKN250 09/05 A3022 RMK AO2 SLP233 T00890050
KFLL 180653Z 32012G19KT 10SM BKN250 10/03 A3023 RMK AO2 SLP235 T01000028

METAR Board
Radar Display
Forecast Discussion

FOR SITUATIONAL AWARENESS. NOT TO BE USED FOR FLIGHT PLANNING PURPOSES.